Time;durP1;ratioP1;P1;durP2;ratioP2;P2;SDS_P1;SDS_P2;PMS_P1;PMS_P2;Temp;Humidity;BMP_temperature;BMP_pressure;BME280_temperature;BME280_humidity;BME280_pressure;Samples;Min_cycle;Max_cycle;Signal;HPM_P1;HPM_P2
2021/01/17 00:00:49;;;;;;;17.80;11.27;;;-6.50;99.90;;;;;;4965258;28;20436;-65
2021/01/17 00:03:19;;;;;;;14.77;12.13;;;-6.50;99.90;;;;;;4962277;28;20058;-65
2021/01/17 00:05:47;;;;;;;19.60;12.37;;;-6.40;99.90;;;;;;4964921;28;20456;-67
2021/01/17 00:08:18;;;;;;;19.07;12.47;;;-6.40;99.90;;;;;;4963958;28;20058;-64
2021/01/17 00:10:45;;;;;;;16.40;12.00;;;-6.30;99.90;;;;;;4964327;28;20475;-67
2021/01/17 00:13:14;;;;;;;17.20;12.27;;;-6.30;99.90;;;;;;4964442;28;20043;-65
2021/01/17 00:15:40;;;;;;;15.03;10.73;;;-6.20;99.90;;;;;;4962156;28;20039;-65
2021/01/17 00:18:07;;;;;;;16.60;11.10;;;-6.20;99.90;;;;;;4963075;28;20039;-65
2021/01/17 00:20:34;;;;;;;15.13;10.40;;;-6.10;99.90;;;;;;4965113;28;20134;-65
2021/01/17 00:23:02;;;;;;;16.00;10.67;;;-6.10;99.90;;;;;;4963726;28;20042;-65
2021/01/17 00:25:29;;;;;;;16.23;11.17;;;-6.00;99.90;;;;;;4962666;28;20192;-65
2021/01/17 00:27:59;;;;;;;;;;;-6.00;99.90;;;;;;4964282;28;20368;-65
2021/01/17 00:30:28;;;;;;;14.20;10.63;;;-6.00;99.90;;;;;;4964118;28;19922;-65
2021/01/17 00:32:56;;;;;;;16.27;11.07;;;-6.00;99.90;;;;;;4964062;28;20069;-64
2021/01/17 00:35:24;;;;;;;13.33;10.77;;;-6.00;99.90;;;;;;4962669;28;20105;-65
2021/01/17 00:37:52;;;;;;;14.97;11.23;;;-6.00;99.90;;;;;;4963229;28;20050;-64
2021/01/17 00:40:20;;;;;;;13.97;10.23;;;-6.00;99.90;;;;;;4963879;28;20061;-65
2021/01/17 00:42:48;;;;;;;14.50;10.17;;;-6.00;99.90;;;;;;4964365;28;20047;-65
2021/01/17 00:45:15;;;;;;;14.50;11.47;;;-6.00;99.90;;;;;;4962862;28;20109;-67
2021/01/17 00:47:44;;;;;;;17.73;11.97;;;-6.00;99.90;;;;;;4964098;28;20450;-64
2021/01/17 00:50:13;;;;;;;14.23;10.60;;;-6.00;99.90;;;;;;4962999;28;20077;-65
2021/01/17 00:52:40;;;;;;;14.77;11.90;;;-6.00;99.90;;;;;;4976803;28;20066;-64
2021/01/17 00:55:08;;;;;;;14.93;10.20;;;-6.00;99.90;;;;;;4962982;28;20046;-64
2021/01/17 00:57:36;;;;;;;16.87;11.80;;;-6.00;99.90;;;;;;4960602;28;20039;-64
2021/01/17 01:00:10;;;;;;;13.73;9.93;;;-5.90;99.90;;;;;;4962648;28;20543;-65
2021/01/17 01:02:54;;;;;;;17.67;11.97;;;-5.90;99.90;;;;;;4962272;28;20046;-65
2021/01/17 01:05:24;;;;;;;15.30;11.17;;;-5.90;99.90;;;;;;4960140;28;20129;-64
2021/01/17 01:07:52;;;;;;;19.37;12.50;;;-5.80;99.90;;;;;;4963667;28;20146;-64
2021/01/17 01:10:19;;;;;;;13.77;10.80;;;-5.80;99.90;;;;;;4962831;28;20047;-64
2021/01/17 01:12:45;;;;;;;15.40;11.60;;;-5.80;99.90;;;;;;4965912;28;20097;-64
2021/01/17 01:15:12;;;;;;;16.83;11.33;;;-5.70;99.90;;;;;;4963562;28;20079;-65
2021/01/17 01:17:38;;;;;;;12.93;8.87;;;-5.70;99.90;;;;;;4963128;28;20053;-65
2021/01/17 01:20:05;;;;;;;12.37;9.10;;;-5.70;99.90;;;;;;4965431;28;20431;-65
2021/01/17 01:22:32;;;;;;;16.07;10.17;;;-5.60;99.90;;;;;;4963131;28;20051;-64
2021/01/17 01:24:58;;;;;;;15.17;8.97;;;-5.50;99.90;;;;;;4961858;28;20098;-64
2021/01/17 01:27:25;;;;;;;15.03;10.13;;;-5.50;99.90;;;;;;4962363;28;20043;-64
2021/01/17 01:29:51;;;;;;;15.43;12.13;;;-5.40;99.90;;;;;;4965008;28;20070;-65
2021/01/17 01:32:19;;;;;;;12.17;9.23;;;-5.40;99.90;;;;;;4964289;28;20627;-65
2021/01/17 01:34:46;;;;;;;14.20;9.83;;;-5.30;99.90;;;;;;4964639;28;20046;-64
2021/01/17 01:37:13;;;;;;;11.03;9.17;;;-5.30;99.90;;;;;;4963601;28;20560;-66
2021/01/17 01:39:40;;;;;;;12.27;9.43;;;-5.30;99.90;;;;;;4962777;28;20039;-66
2021/01/17 01:42:07;;;;;;;15.63;12.27;;;-5.30;99.90;;;;;;4960768;28;20066;-65
2021/01/17 01:44:34;;;;;;;8.27;7.47;;;-5.20;99.90;;;;;;4963932;28;20098;-64
2021/01/17 01:47:02;;;;;;;14.30;9.27;;;-5.20;99.90;;;;;;4963904;28;20057;-65
2021/01/17 01:49:28;;;;;;;12.60;9.57;;;-5.20;99.90;;;;;;4958758;28;20750;-65
2021/01/17 01:52:00;;;;;;;11.33;8.87;;;-5.10;99.90;;;;;;4963627;28;20039;-64
2021/01/17 01:54:27;;;;;;;11.67;8.63;;;-5.10;99.90;;;;;;4962676;28;20059;-65
2021/01/17 01:56:54;;;;;;;12.43;9.40;;;-5.00;99.90;;;;;;4963248;28;20125;-64
2021/01/17 01:59:21;;;;;;;14.80;8.07;;;-5.00;99.90;;;;;;4962949;28;20065;-64
2021/01/17 02:01:54;;;;;;;11.50;10.30;;;-5.00;99.90;;;;;;4964029;28;20035;-67
2021/01/17 02:04:20;;;;;;;17.23;8.83;;;-5.00;99.90;;;;;;4963787;28;20121;-64
2021/01/17 02:07:32;;;;;;;11.97;8.73;;;-5.00;99.90;;;;;;4965629;28;20121;-64
2021/01/17 02:09:59;;;;;;;11.57;8.90;;;-5.00;99.90;;;;;;4965455;28;20050;-65
2021/01/17 02:12:33;;;;;;;11.97;8.23;;;-4.90;99.90;;;;;;4963576;28;20055;-66
2021/01/17 02:15:06;;;;;;;11.83;8.67;;;-4.90;99.90;;;;;;4967296;28;20058;-65
2021/01/17 02:17:34;;;;;;;11.43;7.67;;;-4.90;99.90;;;;;;4965605;28;20042;-66
2021/01/17 02:20:14;;;;;;;10.27;7.77;;;-4.90;99.90;;;;;;4967225;28;20580;-64
2021/01/17 02:23:12;;;;;;;12.10;9.27;;;-4.90;99.90;;;;;;4965271;28;20098;-64
2021/01/17 02:25:39;;;;;;;12.27;10.23;;;-4.80;99.90;;;;;;4960831;28;20046;-64
2021/01/17 02:28:11;;;;;;;9.80;8.17;;;-4.80;99.90;;;;;;4967029;28;20522;-64
2021/01/17 02:30:52;;;;;;;13.27;10.47;;;-4.70;99.90;;;;;;4966806;28;20043;-65
2021/01/17 02:33:26;;;;;;;13.33;9.60;;;-4.70;99.90;;;;;;4963458;28;20043;-65
2021/01/17 02:36:04;;;;;;;11.57;9.60;;;-4.70;99.90;;;;;;4963837;28;20043;-66
2021/01/17 02:38:45;;;;;;;11.60;9.37;;;-4.70;99.90;;;;;;4966903;28;20114;-64
2021/01/17 02:41:37;;;;;;;13.83;9.90;;;-4.70;99.90;;;;;;4965610;28;20078;-64
2021/01/17 02:44:06;;;;;;;16.63;10.47;;;-4.70;99.90;;;;;;4963631;28;20086;-65
2021/01/17 02:46:33;;;;;;;19.37;10.83;;;-4.70;99.90;;;;;;4967815;28;20097;-64
2021/01/17 02:49:00;;;;;;;12.50;10.53;;;-4.70;99.90;;;;;;4966533;28;20047;-65
2021/01/17 02:51:27;;;;;;;15.43;9.50;;;-4.70;99.90;;;;;;4964852;28;20065;-66
2021/01/17 02:54:05;;;;;;;15.13;10.93;;;-4.70;99.90;;;;;;4966437;28;20132;-65
2021/01/17 02:56:32;;;;;;;12.40;9.23;;;-4.70;99.90;;;;;;4967168;28;20098;-65
2021/01/17 02:59:00;;;;;;;14.17;9.30;;;-4.80;99.90;;;;;;4967727;28;20116;-65
2021/01/17 03:01:31;;;;;;;11.53;8.67;;;-4.80;99.90;;;;;;4965896;28;20042;-67
2021/01/17 03:04:06;;;;;;;14.00;8.00;;;-4.90;99.90;;;;;;4967453;28;20065;-66
2021/01/17 03:06:34;;;;;;;10.07;8.27;;;-5.00;99.90;;;;;;4965895;28;20050;-69
2021/01/17 03:09:02;;;;;;;12.40;9.03;;;-5.00;99.90;;;;;;4967251;28;20046;-65
2021/01/17 03:11:28;;;;;;;8.73;7.23;;;-5.10;99.90;;;;;;4967116;28;20532;-65
2021/01/17 03:13:55;;;;;;;10.90;6.97;;;-5.10;99.90;;;;;;4967548;28;20047;-64
2021/01/17 03:16:22;;;;;;;8.30;7.47;;;-5.10;99.90;;;;;;4964912;28;20066;-65
2021/01/17 03:18:48;;;;;;;9.10;6.90;;;-5.20;99.90;;;;;;4959033;28;20043;-65
2021/01/17 03:21:15;;;;;;;11.97;7.30;;;-5.30;99.90;;;;;;4966606;28;20142;-64
2021/01/17 03:23:41;;;;;;;10.00;7.77;;;-5.30;99.90;;;;;;4965877;28;20094;-66
2021/01/17 03:26:27;;;;;;;8.30;6.20;;;-5.40;99.90;;;;;;4966163;28;20228;-66
2021/01/17 03:28:53;;;;;;;9.77;7.37;;;-5.40;99.90;;;;;;4963950;28;20197;-64
2021/01/17 03:31:20;;;;;;;11.90;7.10;;;-5.40;99.90;;;;;;4964272;28;20046;-69
2021/01/17 03:33:46;;;;;;;9.47;7.03;;;-5.50;99.90;;;;;;4967560;28;20161;-66
2021/01/17 03:36:13;;;;;;;10.60;8.37;;;-5.50;99.90;;;;;;4966438;28;20514;-65
2021/01/17 03:38:39;;;;;;;9.03;6.80;;;-5.50;99.90;;;;;;4965155;28;20049;-69
2021/01/17 03:41:11;;;;;;;13.90;8.47;;;-5.50;99.90;;;;;;4965324;28;20053;-65
2021/01/17 03:43:38;;;;;;;9.73;7.63;;;-5.50;99.90;;;;;;4963510;28;20057;-66
2021/01/17 03:46:04;;;;;;;9.17;6.77;;;-5.50;99.90;;;;;;4965553;28;20042;-68
2021/01/17 03:48:31;;;;;;;10.37;7.40;;;-5.50;99.90;;;;;;4965433;28;20043;-65
2021/01/17 03:50:57;;;;;;;8.00;7.10;;;-5.50;99.90;;;;;;4965550;28;20487;-64
2021/01/17 03:53:24;;;;;;;10.77;7.57;;;-5.40;99.90;;;;;;4962819;28;20042;-67
2021/01/17 03:55:50;;;;;;;12.07;7.90;;;-5.40;99.90;;;;;;4965846;28;20495;-64
2021/01/17 03:58:16;;;;;;;11.13;9.80;;;-5.40;99.90;;;;;;4965514;28;20486;-67
2021/01/17 04:00:43;;;;;;;9.83;7.80;;;-5.40;99.90;;;;;;4965552;28;20122;-65
2021/01/17 04:03:09;;;;;;;10.00;7.93;;;-5.40;99.90;;;;;;4964520;28;20161;-65
2021/01/17 04:05:36;;;;;;;11.17;7.87;;;-5.40;99.90;;;;;;4963740;28;20139;-64
2021/01/17 04:08:02;;;;;;;8.30;7.00;;;-5.40;99.90;;;;;;4964489;28;20054;-64
2021/01/17 04:10:29;;;;;;;10.67;8.30;;;-5.40;99.90;;;;;;4964651;28;20105;-65
2021/01/17 04:12:55;;;;;;;13.63;8.40;;;-5.40;99.90;;;;;;4961760;28;20038;-65
2021/01/17 04:15:22;;;;;;;10.33;8.20;;;-5.40;99.90;;;;;;4964608;28;20058;-66
2021/01/17 04:17:48;;;;;;;9.37;7.50;;;-5.40;99.90;;;;;;4966517;28;20055;-64
2021/01/17 04:20:15;;;;;;;12.97;9.07;;;-5.30;99.90;;;;;;4967586;28;20149;-65
2021/01/17 04:22:42;;;;;;;14.10;10.27;;;-5.30;99.90;;;;;;4967576;28;20051;-65
2021/01/17 04:25:09;;;;;;;14.10;10.73;;;-5.30;99.90;;;;;;4970050;28;20043;-64
2021/01/17 04:27:35;;;;;;;12.67;9.77;;;-5.30;99.90;;;;;;4964486;28;20113;-64
2021/01/17 04:30:04;;;;;;;13.93;10.43;;;-5.40;99.90;;;;;;4968154;28;20101;-65
2021/01/17 04:32:30;;;;;;;14.83;10.80;;;-5.40;99.90;;;;;;4967001;28;20510;-64
2021/01/17 04:34:57;;;;;;;15.87;11.40;;;-5.40;99.90;;;;;;4965231;28;20055;-64
2021/01/17 04:37:25;;;;;;;14.40;10.30;;;-5.40;99.90;;;;;;4962167;28;20051;-68
2021/01/17 04:39:51;;;;;;;14.00;10.60;;;-5.40;99.90;;;;;;4964197;28;20635;-64
2021/01/17 04:42:22;;;;;;;13.53;10.43;;;-5.40;99.90;;;;;;4964737;28;20051;-64
2021/01/17 04:45:05;;;;;;;15.00;10.00;;;-5.50;99.90;;;;;;4964747;28;20054;-65
2021/01/17 04:47:35;;;;;;;11.93;9.40;;;-5.50;99.90;;;;;;4961372;28;20161;-65
2021/01/17 04:50:05;;;;;;;18.10;11.35;;;-5.60;99.90;;;;;;4964705;28;20054;-64
2021/01/17 04:52:41;;;;;;;13.80;9.93;;;-5.60;99.90;;;;;;4963384;28;20125;-64
2021/01/17 04:55:12;;;;;;;12.27;9.87;;;-5.60;99.90;;;;;;4964660;28;20088;-64
2021/01/17 04:57:56;;;;;;;12.00;9.30;;;-5.70;99.90;;;;;;4962353;28;20101;-66
2021/01/17 05:00:30;;;;;;;13.13;10.30;;;-5.70;99.90;;;;;;4959341;28;20146;-66
2021/01/17 05:03:14;;;;;;;10.70;8.27;;;-5.80;99.90;;;;;;4961262;28;20142;-67
2021/01/17 05:06:14;;;;;;;13.50;9.40;;;-5.80;99.90;;;;;;4959737;28;20077;-68
2021/01/17 05:08:45;;;;;;;10.10;7.73;;;-5.90;99.90;;;;;;4965263;28;20309;-64
2021/01/17 05:11:36;;;;;;;11.93;8.50;;;-5.90;99.90;;;;;;4968198;28;20082;-65
2021/01/17 05:14:08;;;;;;;11.68;9.48;;;-6.00;99.90;;;;;;4966093;28;20208;-66
2021/01/17 05:16:39;;;;;;;10.87;9.53;;;-6.00;99.90;;;;;;4965313;28;20061;-64
2021/01/17 05:19:16;;;;;;;12.70;8.00;;;-6.00;99.90;;;;;;4964514;28;20042;-63
2021/01/17 05:21:50;;;;;;;14.40;10.37;;;-6.10;99.90;;;;;;4964091;28;20050;-67
2021/01/17 05:24:19;;;;;;;11.70;8.97;;;-6.10;99.90;;;;;;4961777;28;20054;-64
2021/01/17 05:27:02;;;;;;;11.73;9.90;;;-6.20;99.90;;;;;;4963779;28;20042;-64
2021/01/17 05:29:30;;;;;;;11.53;9.03;;;-6.20;99.90;;;;;;4961028;28;20043;-64
2021/01/17 05:31:58;;;;;;;13.17;9.90;;;-6.30;99.90;;;;;;4964162;28;20615;-64
2021/01/17 05:34:26;;;;;;;12.20;8.67;;;-6.30;99.90;;;;;;4963486;28;20122;-65
2021/01/17 05:37:07;;;;;;;13.83;8.97;;;-6.30;99.90;;;;;;4962802;28;20050;-66
2021/01/17 05:39:52;;;;;;;14.07;9.37;;;-6.40;99.90;;;;;;4962456;28;20126;-69
2021/01/17 05:42:23;;;;;;;12.23;9.77;;;-6.40;99.90;;;;;;4961226;28;20063;-65
2021/01/17 05:44:49;;;;;;;11.37;9.50;;;-6.40;99.90;;;;;;4963199;28;20137;-68
2021/01/17 05:47:23;;;;;;;13.67;10.57;;;-6.40;99.90;;;;;;4962337;28;20046;-64
2021/01/17 05:49:50;;;;;;;14.07;10.53;;;-6.50;99.90;;;;;;4963521;28;20554;-64
2021/01/17 05:52:19;;;;;;;14.23;10.10;;;-6.50;99.90;;;;;;4962317;28;20105;-64
2021/01/17 05:54:49;;;;;;;13.67;10.63;;;-6.60;99.90;;;;;;4964137;28;20121;-64
2021/01/17 05:57:23;;;;;;;16.47;10.27;;;-6.60;99.90;;;;;;4960376;28;20054;-65
2021/01/17 05:59:50;;;;;;;15.93;10.80;;;-6.60;99.90;;;;;;4963825;28;20126;-65
2021/01/17 06:02:18;;;;;;;14.77;11.60;;;-6.60;99.90;;;;;;4963276;28;20460;-65
2021/01/17 06:04:58;;;;;;;14.73;10.37;;;-6.60;99.90;;;;;;4963874;28;20503;-67
2021/01/17 06:07:30;;;;;;;12.93;8.60;;;-6.70;99.90;;;;;;4961319;28;20053;-64
2021/01/17 06:09:57;;;;;;;14.30;10.80;;;-6.70;99.90;;;;;;4962663;28;20058;-64
2021/01/17 06:12:35;;;;;;;13.50;9.83;;;-6.70;99.90;;;;;;4963062;28;20792;-64
2021/01/17 06:15:12;;;;;;;15.37;10.63;;;-6.70;99.90;;;;;;4964052;28;20470;-64
2021/01/17 06:17:45;;;;;;;14.93;10.17;;;-6.70;99.90;;;;;;4962392;28;20063;-64
2021/01/17 06:20:20;;;;;;;18.17;11.43;;;-6.80;99.90;;;;;;4961189;28;20130;-64
2021/01/17 06:23:07;;;;;;;14.80;10.67;;;-6.80;99.90;;;;;;4962708;28;20113;-65
2021/01/17 06:25:33;;;;;;;16.33;10.93;;;-6.80;99.90;;;;;;4961889;28;20139;-64
2021/01/17 06:28:10;;;;;;;17.67;11.17;;;-6.90;99.90;;;;;;4962353;28;20444;-67
2021/01/17 06:30:38;;;;;;;15.97;11.27;;;-6.90;99.90;;;;;;4963710;28;20514;-65
2021/01/17 06:33:10;;;;;;;14.83;11.00;;;-6.90;99.90;;;;;;4962472;28;20058;-64
2021/01/17 06:35:38;;;;;;;19.33;13.17;;;-6.90;99.90;;;;;;4961515;28;20063;-67
2021/01/17 06:38:18;;;;;;;18.57;12.30;;;-6.90;99.90;;;;;;4964008;28;20058;-67
2021/01/17 06:40:47;;;;;;;15.20;12.18;;;-6.90;99.90;;;;;;4962630;28;20051;-66
2021/01/17 06:43:14;;;;;;;17.20;12.20;;;-6.90;99.90;;;;;;4962862;28;20514;-65
2021/01/17 06:45:45;;;;;;;17.30;13.63;;;-7.00;99.90;;;;;;4961955;28;20070;-65
2021/01/17 06:48:22;;;;;;;16.73;12.43;;;-7.00;99.90;;;;;;4961497;28;20074;-64
2021/01/17 06:50:49;;;;;;;17.83;13.10;;;-7.00;99.90;;;;;;4960803;28;20077;-64
2021/01/17 06:53:23;;;;;;;19.20;14.43;;;-7.00;99.90;;;;;;4961894;28;20145;-64
2021/01/17 06:56:09;;;;;;;19.07;13.23;;;-7.00;99.90;;;;;;4966313;28;20105;-65
2021/01/17 06:58:39;;;;;;;17.17;12.00;;;-7.00;99.90;;;;;;4965410;28;20403;-64
2021/01/17 07:01:07;;;;;;;23.77;12.17;;;-7.00;99.90;;;;;;4966263;28;20050;-65
2021/01/17 07:03:42;;;;;;;19.20;12.67;;;-7.10;99.90;;;;;;4964641;28;20046;-66
2021/01/17 07:06:43;;;;;;;14.77;12.97;;;-7.10;99.90;;;;;;4966170;28;20150;-65
2021/01/17 07:09:19;;;;;;;17.90;11.87;;;-7.10;99.90;;;;;;4963310;28;20111;-66
2021/01/17 07:12:00;;;;;;;18.87;15.20;;;-7.00;99.90;;;;;;4964597;28;20118;-64
2021/01/17 07:14:29;;;;;;;;;;;-7.00;99.90;;;;;;4966446;28;20074;-64
2021/01/17 07:16:59;;;;;;;17.65;12.15;;;-7.00;99.90;;;;;;4963631;28;19929;-64
2021/01/17 07:19:39;;;;;;;20.63;14.27;;;-7.00;99.90;;;;;;4965916;28;20043;-67
2021/01/17 07:22:06;;;;;;;21.52;15.00;;;-7.00;99.90;;;;;;4960877;28;20043;-65
2021/01/17 07:24:33;;;;;;;21.17;15.67;;;-7.00;99.90;;;;;;4965792;28;20054;-64
2021/01/17 07:27:26;;;;;;;17.77;14.17;;;-6.90;99.90;;;;;;4965246;28;20051;-68
2021/01/17 07:29:58;;;;;;;24.13;17.23;;;-6.90;99.90;;;;;;4963956;28;20817;-66
2021/01/17 07:32:37;;;;;;;22.57;15.30;;;-6.90;99.90;;;;;;4966114;28;20245;-64
2021/01/17 07:35:09;;;;;;;22.67;17.20;;;-6.80;99.90;;;;;;4965497;28;20141;-64
2021/01/17 07:37:41;;;;;;;22.33;16.50;;;-6.80;99.90;;;;;;4963473;28;20059;-63
2021/01/17 07:40:09;;;;;;;25.03;16.53;;;-6.80;99.90;;;;;;4965447;28;20048;-64
2021/01/17 07:42:37;;;;;;;23.07;17.33;;;-6.80;99.90;;;;;;4965735;28;20046;-66
2021/01/17 07:45:18;;;;;;;37.20;25.20;;;-6.80;99.90;;;;;;4965588;28;20660;-64
2021/01/17 07:47:46;;;;;;;43.90;26.87;;;-6.80;99.90;;;;;;4958152;28;21003;-65
2021/01/17 07:50:13;;;;;;;47.50;25.73;;;-6.80;99.90;;;;;;4965230;28;20062;-65
2021/01/17 07:52:52;;;;;;;37.10;25.27;;;-6.80;99.90;;;;;;4964736;28;20142;-65
2021/01/17 07:55:20;;;;;;;41.27;24.30;;;-6.70;99.90;;;;;;4963578;28;20047;-65
2021/01/17 07:57:50;;;;;;;36.80;26.00;;;-6.70;99.90;;;;;;4965206;28;20109;-65
2021/01/17 08:00:23;;;;;;;36.42;22.75;;;-6.70;99.90;;;;;;4965591;28;20073;-66
2021/01/17 08:02:49;;;;;;;31.30;20.13;;;-6.70;99.90;;;;;;4963767;28;20050;-67
2021/01/17 08:05:15;;;;;;;33.00;19.23;;;-6.70;99.90;;;;;;4963009;28;20101;-65
2021/01/17 08:07:42;;;;;;;26.67;17.47;;;-6.70;99.90;;;;;;4964223;28;20105;-65
2021/01/17 08:10:08;;;;;;;24.23;16.63;;;-6.70;99.90;;;;;;4964656;28;20054;-64
2021/01/17 08:12:37;;;;;;;25.13;16.50;;;-6.80;99.90;;;;;;4964270;28;20507;-64
2021/01/17 08:15:14;;;;;;;22.13;15.00;;;-6.70;99.90;;;;;;4965592;28;20062;-64
2021/01/17 08:17:41;;;;;;;24.63;15.93;;;-6.70;99.90;;;;;;4964609;28;20121;-64
2021/01/17 08:20:08;;;;;;;22.17;16.03;;;-6.70;99.90;;;;;;4965729;28;20087;-65
2021/01/17 08:22:34;;;;;;;23.03;15.00;;;-6.70;99.90;;;;;;4964795;28;20631;-65
2021/01/17 08:25:05;;;;;;;18.43;13.70;;;-6.70;99.90;;;;;;4964484;28;20042;-66
2021/01/17 08:27:40;;;;;;;24.77;16.20;;;-6.70;99.90;;;;;;4963461;28;20399;-66
2021/01/17 08:30:08;;;;;;;26.03;15.57;;;-6.60;99.90;;;;;;4963652;28;20059;-66
2021/01/17 08:32:35;;;;;;;30.03;21.30;;;-6.60;99.90;;;;;;4964505;28;20046;-66
2021/01/17 08:35:10;;;;;;;29.43;18.90;;;-6.50;99.90;;;;;;4964585;28;20046;-64
2021/01/17 08:37:47;;;;;;;28.40;18.77;;;-6.50;99.90;;;;;;4962425;28;20122;-67
2021/01/17 08:40:19;;;;;;;32.17;20.00;;;-6.40;99.90;;;;;;4963858;28;20141;-66
2021/01/17 08:42:53;;;;;;;25.83;18.50;;;-6.40;99.90;;;;;;4956924;28;20129;-64
2021/01/17 08:45:22;;;;;;;26.40;15.73;;;-6.40;99.90;;;;;;4961961;28;20055;-66
2021/01/17 08:47:50;;;;;;;31.07;18.03;;;-6.30;99.90;;;;;;4963654;28;20128;-65
2021/01/17 08:50:31;;;;;;;24.90;17.33;;;-6.30;99.90;;;;;;4964151;28;20471;-64
2021/01/17 08:53:17;;;;;;;27.30;18.90;;;-6.20;99.90;;;;;;4964311;28;20046;-64
2021/01/17 08:56:23;;;;;;;25.87;17.20;;;-6.10;99.90;;;;;;4957978;28;20043;-64
2021/01/17 08:58:51;;;;;;;25.67;16.40;;;-6.10;99.90;;;;;;4963029;28;20046;-70
2021/01/17 09:01:19;;;;;;;25.90;18.00;;;-5.90;99.90;;;;;;4958290;28;20051;-66
2021/01/17 09:03:46;;;;;;;26.83;17.77;;;-5.90;99.90;;;;;;4963451;28;20152;-66
2021/01/17 09:06:13;;;;;;;27.23;18.13;;;-5.80;99.90;;;;;;4963423;28;20066;-67
2021/01/17 09:09:00;;;;;;;28.40;18.80;;;-5.80;99.90;;;;;;4962841;28;20058;-67
2021/01/17 09:11:32;;;;;;;28.03;19.17;;;-5.70;99.90;;;;;;4962440;28;20133;-68
2021/01/17 09:14:07;;;;;;;22.83;17.43;;;-5.60;99.90;;;;;;4961315;28;20065;-67
2021/01/17 09:16:37;;;;;;;34.50;19.90;;;-5.50;99.90;;;;;;4964602;28;20073;-65
2021/01/17 09:19:05;;;;;;;30.13;19.90;;;-5.50;99.90;;;;;;4962996;28;20120;-64
2021/01/17 09:21:33;;;;;;;31.63;20.10;;;-5.40;99.90;;;;;;4962705;28;20478;-65
2021/01/17 09:24:06;;;;;;;30.37;18.60;;;-5.40;99.90;;;;;;4962661;28;20343;-65
2021/01/17 09:26:33;;;;;;;23.33;17.67;;;-5.30;99.90;;;;;;4963797;28;20141;-64
2021/01/17 09:28:59;;;;;;;30.67;17.10;;;-5.30;99.90;;;;;;4963304;28;20049;-69
2021/01/17 09:31:29;;;;;;;32.77;21.37;;;-5.20;99.90;;;;;;4961934;28;20039;-64
2021/01/17 09:33:55;;;;;;;24.83;18.10;;;-5.10;99.90;;;;;;4964247;28;20057;-64
2021/01/17 09:36:23;;;;;;;27.80;19.90;;;-5.10;99.90;;;;;;4963749;28;20046;-66
2021/01/17 09:38:50;;;;;;;26.57;18.17;;;-5.00;99.90;;;;;;4962192;28;20091;-66
2021/01/17 09:41:24;;;;;;;21.67;16.80;;;-4.90;99.90;;;;;;4962217;28;20054;-65
2021/01/17 09:43:52;;;;;;;26.30;17.37;;;-4.90;99.90;;;;;;4963709;28;20142;-64
2021/01/17 09:46:24;;;;;;;18.90;15.38;;;-4.80;99.90;;;;;;4960802;28;20150;-64
2021/01/17 09:48:55;;;;;;;22.45;16.42;;;-4.70;99.90;;;;;;4962460;28;20066;-64
2021/01/17 09:51:23;;;;;;;20.23;15.83;;;-4.70;99.90;;;;;;4962539;28;20058;-64
2021/01/17 09:53:53;;;;;;;20.50;14.37;;;-4.60;99.90;;;;;;4961313;28;20053;-65
2021/01/17 09:56:20;;;;;;;20.80;16.60;;;-4.60;99.90;;;;;;4958651;28;20514;-64
2021/01/17 09:58:47;;;;;;;18.80;14.60;;;-4.50;99.90;;;;;;4962660;28;20464;-68
2021/01/17 10:01:20;;;;;;;18.77;13.23;;;-4.40;99.90;;;;;;4963429;28;20372;-63
2021/01/17 10:03:48;;;;;;;18.50;12.27;;;-4.30;99.90;;;;;;4957691;28;20051;-65
2021/01/17 10:06:16;;;;;;;16.17;11.97;;;-4.20;99.90;;;;;;4963376;28;20483;-65
2021/01/17 10:08:44;;;;;;;15.07;12.20;;;-4.10;99.90;;;;;;4962150;28;20498;-66
2021/01/17 10:11:11;;;;;;;14.83;11.93;;;-3.90;99.90;;;;;;4963529;28;20051;-64
2021/01/17 10:13:47;;;;;;;15.67;11.07;;;-3.80;99.90;;;;;;4962093;28;20097;-65
2021/01/17 10:16:22;;;;;;;13.53;10.47;;;-3.70;99.90;;;;;;4965368;28;20054;-64
2021/01/17 10:18:49;;;;;;;11.47;10.27;;;-3.60;99.90;;;;;;4961421;28;20113;-63
2021/01/17 10:21:18;;;;;;;9.60;6.83;;;-3.50;99.90;;;;;;4962610;28;20051;-65
2021/01/17 10:23:44;;;;;;;7.07;6.43;;;-3.40;99.90;;;;;;4962458;28;20538;-65
2021/01/17 10:26:23;;;;;;;7.65;6.35;;;-3.40;99.90;;;;;;4962815;28;20047;-63
2021/01/17 10:28:50;;;;;;;7.88;5.97;;;-3.20;99.90;;;;;;4965884;28;20211;-66
2021/01/17 10:31:23;;;;;;;5.93;4.87;;;-3.10;99.90;;;;;;4965530;28;20051;-63
2021/01/17 10:33:49;;;;;;;6.50;5.00;;;-2.90;99.90;;;;;;4966589;28;20101;-66
2021/01/17 10:36:17;;;;;;;5.18;4.68;;;-2.80;99.90;;;;;;4964894;28;20455;-64
2021/01/17 10:38:49;;;;;;;4.70;4.25;;;-2.70;99.90;;;;;;4966787;28;20051;-65
2021/01/17 10:41:24;;;;;;;6.23;5.13;;;-2.60;99.90;;;;;;4965545;28;20055;-67
2021/01/17 10:44:01;;;;;;;5.45;3.60;;;-2.50;99.90;;;;;;4965030;28;20046;-65
2021/01/17 10:46:29;;;;;;;5.65;4.85;;;-2.30;99.90;;;;;;4966419;28;20156;-67
2021/01/17 10:49:18;;;;;;;3.30;2.97;;;-2.30;99.90;;;;;;4966359;28;20035;-64
2021/01/17 10:51:52;;;;;;;5.15;3.05;;;-2.20;99.90;;;;;;4964559;28;20150;-65
2021/01/17 10:54:29;;;;;;;4.28;3.55;;;-2.00;99.90;;;;;;4963975;28;20118;-66
2021/01/17 10:57:02;;;;;;;4.88;3.47;;;-1.90;99.90;;;;;;4965821;28;20061;-65
2021/01/17 10:59:30;;;;;;;6.30;3.58;;;-1.80;99.90;;;;;;4965264;28;20390;-64
2021/01/17 11:01:56;;;;;;;4.63;3.88;;;-1.70;99.90;;;;;;4966406;28;20059;-64
2021/01/17 11:04:23;;;;;;;4.38;3.47;;;-1.70;99.90;;;;;;4963674;28;20046;-68
2021/01/17 11:06:56;;;;;;;4.13;3.63;;;-1.50;99.90;;;;;;4965740;28;20051;-66
2021/01/17 11:09:24;;;;;;;5.03;3.60;;;-1.50;99.90;;;;;;4963775;28;20063;-64
2021/01/17 11:11:50;;;;;;;4.30;3.47;;;-1.40;99.90;;;;;;4965472;28;20597;-65
2021/01/17 11:14:30;;;;;;;4.60;3.05;;;-1.30;99.90;;;;;;4965781;28;20529;-64
2021/01/17 11:16:58;;;;;;;5.30;3.90;;;-1.30;99.90;;;;;;4966312;28;20142;-64
2021/01/17 11:19:34;;;;;;;5.00;3.60;;;-1.20;99.90;;;;;;4964706;28;20042;-64
2021/01/17 11:22:01;;;;;;;7.82;4.78;;;-1.20;99.90;;;;;;4963534;28;20039;-68
2021/01/17 11:24:38;;;;;;;7.45;4.53;;;-1.10;99.90;;;;;;4964912;28;20141;-69
2021/01/17 11:27:16;;;;;;;8.60;5.47;;;-1.00;99.90;;;;;;4965131;28;20699;-64
2021/01/17 11:29:44;;;;;;;7.18;4.78;;;-1.00;99.90;;;;;;4963860;28;20050;-64
2021/01/17 11:32:11;;;;;;;5.80;4.03;;;-1.00;99.90;;;;;;4965555;28;20161;-64
2021/01/17 11:34:42;;;;;;;3.90;3.33;;;-1.00;99.90;;;;;;4963425;28;20062;-66
2021/01/17 11:37:08;;;;;;;;;;;-1.00;99.90;;;;;;4964647;28;20157;-65
2021/01/17 11:39:35;;;;;;;5.18;2.78;;;-1.00;99.90;;;;;;4963352;28;19965;-65
2021/01/17 11:42:03;;;;;;;5.03;3.08;;;-0.90;99.90;;;;;;4965071;28;20106;-66
2021/01/17 11:44:34;;;;;;;7.07;3.58;;;-0.90;99.90;;;;;;4964986;28;20050;-65
2021/01/17 11:47:02;;;;;;;4.68;3.13;;;-0.90;99.90;;;;;;4965025;28;20130;-65
2021/01/17 11:49:31;;;;;;;5.97;3.80;;;-0.90;99.90;;;;;;4964248;28;20050;-64
2021/01/17 11:52:11;;;;;;;6.22;4.50;;;-0.90;99.90;;;;;;4964737;28;20065;-67
2021/01/17 11:54:38;;;;;;;4.03;2.88;;;-0.80;99.90;;;;;;4959911;28;20053;-65
2021/01/17 11:57:07;;;;;;;6.90;3.17;;;-0.80;99.90;;;;;;4964280;28;20058;-64
2021/01/17 11:59:35;;;;;;;6.63;4.47;;;-0.80;99.90;;;;;;4962968;28;20101;-66
2021/01/17 12:02:21;;;;;;;4.97;4.07;;;-0.70;99.90;;;;;;4964284;28;20047;-65
2021/01/17 12:05:08;;;;;;;6.53;3.78;;;-0.70;99.90;;;;;;4963774;28;20049;-66
2021/01/17 12:07:35;;;;;;;3.53;3.20;;;-0.80;99.90;;;;;;4961761;28;20944;-65
2021/01/17 12:10:07;;;;;;;4.55;3.45;;;-0.80;99.90;;;;;;4964320;28;20129;-64
2021/01/17 12:12:35;;;;;;;3.83;3.10;;;-0.80;99.90;;;;;;4964399;28;20053;-64
2021/01/17 12:15:07;;;;;;;3.63;2.83;;;-0.80;99.90;;;;;;4965238;28;20398;-66
2021/01/17 12:17:33;;;;;;;3.22;2.45;;;-0.80;99.90;;;;;;4964198;28;20191;-67
2021/01/17 12:20:00;;;;;;;4.30;3.08;;;-0.80;99.90;;;;;;4966027;28;20042;-64
2021/01/17 12:22:28;;;;;;;3.83;3.28;;;-0.70;99.90;;;;;;4964331;28;20050;-65
2021/01/17 12:24:55;;;;;;;5.10;3.50;;;-0.70;99.90;;;;;;4966195;28;20035;-64
2021/01/17 12:27:21;;;;;;;4.45;2.92;;;-0.70;99.90;;;;;;4964242;28;20411;-64
2021/01/17 12:29:48;;;;;;;3.55;3.20;;;-0.70;99.90;;;;;;4963799;28;20066;-65
2021/01/17 12:32:15;;;;;;;5.53;3.75;;;-0.70;99.90;;;;;;4965565;28;20426;-66
2021/01/17 12:34:41;;;;;;;5.85;3.92;;;-0.70;99.90;;;;;;4966078;28;20368;-64
2021/01/17 12:37:08;;;;;;;5.18;3.70;;;-0.70;99.90;;;;;;4964148;28;20065;-65
2021/01/17 12:39:34;;;;;;;4.80;2.92;;;-0.60;99.90;;;;;;4964477;28;23200;-65
2021/01/17 12:42:02;;;;;;;4.85;3.58;;;-0.60;99.90;;;;;;4964680;28;20145;-64
2021/01/17 12:44:28;;;;;;;3.92;3.53;;;-0.60;99.90;;;;;;4964985;28;20133;-64
2021/01/17 12:46:55;;;;;;;4.70;3.97;;;-0.60;99.90;;;;;;4966281;28;20072;-65
2021/01/17 12:49:21;;;;;;;6.68;3.80;;;-0.60;99.90;;;;;;4963491;28;20043;-64
2021/01/17 12:51:48;;;;;;;5.10;3.72;;;-0.60;99.90;;;;;;4963080;28;20047;-65
2021/01/17 12:54:14;;;;;;;5.28;3.97;;;-0.70;99.90;;;;;;4963322;28;20481;-67